Time,TemperatureF,DewpointF,PressureIn,WindDirection,WindDirectionDegrees,WindSpeedMPH,WindSpeedGustMPH,Humidity,HourlyPrecipIn,Conditions,Clouds,dailyrainin,SoftwareType,DateUTC
2013-08-30 00:07:00,62.7,62.0,30.04,ESE,123,0.0,0.0,98,0.05,,,0.02,weatherlink.com 1.10,2013-08-30 07:07:00,
2013-08-30 00:22:00,62.7,62.0,30.03,ENE,76,0.0,3.0,98,0.06,,,0.03,weatherlink.com 1.10,2013-08-30 07:22:00,
2013-08-30 00:37:00,62.6,62.0,30.04,East,82,0.0,4.0,98,0.06,,,0.04,weatherlink.com 1.10,2013-08-30 07:37:00,
2013-08-30 00:52:00,62.6,62.0,30.05,ENE,76,0.0,4.0,98,0.06,,,0.06,weatherlink.com 1.10,2013-08-30 07:52:00,
2013-08-30 01:07:00,62.7,62.0,30.06,WSW,246,0.0,5.0,98,0.06,,,0.08,weatherlink.com 1.10,2013-08-30 08:07:00,
2013-08-30 01:22:00,62.7,62.0,30.06,SE,132,0.0,10.0,97,0.10,,,0.13,weatherlink.com 1.10,2013-08-30 08:22:00,
2013-08-30 01:37:00,62.5,62.0,30.06,East,99,0.0,2.0,98,0.19,,,0.23,weatherlink.com 1.10,2013-08-30 08:37:00,
2013-08-30 01:52:00,62.2,62.0,30.06,East,99,0.0,2.0,98,0.20,,,0.26,weatherlink.com 1.10,2013-08-30 08:52:00,
2013-08-30 02:07:00,62.0,62.0,30.06,ENE,75,0.0,5.0,98,0.21,,,0.29,weatherlink.com 1.10,2013-08-30 09:07:00,
2013-08-30 02:22:00,61.9,61.0,30.07,ENE,75,0.0,0.0,98,0.16,,,0.29,weatherlink.com 1.10,2013-08-30 09:22:00,
2013-08-30 02:37:00,61.8,61.0,30.07,ENE,75,0.0,3.0,98,0.07,,,0.30,weatherlink.com 1.10,2013-08-30 09:37:00,
2013-08-30 02:52:00,61.7,61.0,30.07,ENE,75,0.0,0.0,98,0.09,,,0.35,weatherlink.com 1.10,2013-08-30 09:52:00,
2013-08-30 03:07:00,61.6,61.0,30.07,ENE,75,1.0,1.0,98,0.12,,,0.41,weatherlink.com 1.10,2013-08-30 10:07:00,
2013-08-30 03:22:00,61.4,61.0,30.08,ENE,75,0.0,2.0,98,0.17,,,0.46,weatherlink.com 1.10,2013-08-30 10:22:00,
2013-08-30 03:37:00,61.3,61.0,30.08,ENE,75,0.0,1.0,98,0.18,,,0.48,weatherlink.com 1.10,2013-08-30 10:37:00,
2013-08-30 03:52:00,61.2,61.0,30.09,ENE,75,0.0,3.0,98,0.13,,,0.48,weatherlink.com 1.10,2013-08-30 10:52:00,
2013-08-30 04:07:00,61.1,61.0,30.08,ENE,75,0.0,2.0,98,0.07,,,0.48,weatherlink.com 1.10,2013-08-30 11:07:00,
2013-08-30 04:22:00,61.1,61.0,30.09,ENE,75,0.0,1.0,98,0.02,,,0.49,weatherlink.com 1.10,2013-08-30 11:22:00,
2013-08-30 04:37:00,61.0,61.0,30.09,ENE,75,0.0,0.0,98,0.01,,,0.49,weatherlink.com 1.10,2013-08-30 11:37:00,
2013-08-30 04:52:00,61.0,61.0,30.09,ENE,75,0.0,1.0,98,0.01,,,0.49,weatherlink.com 1.10,2013-08-30 11:52:00,
2013-08-30 05:07:00,60.9,60.0,30.09,ENE,75,0.0,0.0,98,0.02,,,0.50,weatherlink.com 1.10,2013-08-30 12:07:00,
2013-08-30 05:22:00,60.8,60.0,30.10,ENE,75,0.0,1.0,98,0.01,,,0.50,weatherlink.com 1.10,2013-08-30 12:22:00,
2013-08-30 05:37:00,60.7,60.0,30.10,ENE,75,0.0,2.0,98,0.02,,,0.51,weatherlink.com 1.10,2013-08-30 12:37:00,
2013-08-30 05:53:00,60.7,60.0,30.11,ENE,75,0.0,0.0,98,0.02,,,0.51,weatherlink.com 1.10,2013-08-30 12:53:00,
2013-08-30 06:08:00,60.5,60.0,30.11,ENE,75,0.0,1.0,98,0.01,,,0.51,weatherlink.com 1.10,2013-08-30 13:08:00,
2013-08-30 06:23:00,60.4,60.0,30.11,ENE,75,0.0,0.0,98,0.01,,,0.51,weatherlink.com 1.10,2013-08-30 13:23:00,
2013-08-30 06:38:00,59.9,59.0,30.12,ENE,75,0.0,2.0,98,0.00,,,0.51,weatherlink.com 1.10,2013-08-30 13:38:00,
2013-08-30 06:53:00,59.5,59.0,30.12,ENE,75,0.0,0.0,98,0.00,,,0.51,weatherlink.com 1.10,2013-08-30 13:53:00,
2013-08-30 07:08:00,59.3,59.0,30.13,ENE,75,0.0,1.0,98,0.00,,,0.51,weatherlink.com 1.10,2013-08-30 14:08:00,
2013-08-30 07:23:00,59.2,59.0,30.14,ENE,75,0.0,0.0,98,0.00,,,0.51,weatherlink.com 1.10,2013-08-30 14:23:00,
2013-08-30 07:38:00,59.3,59.0,30.14,ENE,75,0.0,0.0,98,0.00,,,0.51,weatherlink.com 1.10,2013-08-30 14:38:00,
2013-08-30 07:53:00,59.5,59.0,30.15,ENE,75,0.0,0.0,98,0.00,,,0.51,weatherlink.com 1.10,2013-08-30 14:53:00,
2013-08-30 08:08:00,59.4,59.0,30.15,ENE,75,0.0,0.0,98,0.00,,,0.51,weatherlink.com 1.10,2013-08-30 15:08:00,
2013-08-30 08:23:00,59.5,59.0,30.16,ENE,75,0.0,0.0,98,0.00,,,0.51,weatherlink.com 1.10,2013-08-30 15:23:00,
2013-08-30 08:38:00,59.5,59.0,30.15,ENE,75,0.0,2.0,98,0.00,,,0.51,weatherlink.com 1.10,2013-08-30 15:38:00,
2013-08-30 08:53:00,59.6,59.0,30.16,ENE,75,0.0,0.0,98,0.00,,,0.51,weatherlink.com 1.10,2013-08-30 15:53:00,
2013-08-30 09:08:00,59.8,59.0,30.16,ENE,76,0.0,1.0,98,0.00,,,0.51,weatherlink.com 1.10,2013-08-30 16:08:00,
2013-08-30 09:23:00,60.3,60.0,30.17,ENE,76,0.0,0.0,98,0.00,,,0.51,weatherlink.com 1.10,2013-08-30 16:23:00,
2013-08-30 09:38:00,60.4,60.0,30.17,ENE,76,1.0,2.0,98,0.00,,,0.51,weatherlink.com 1.10,2013-08-30 16:38:00,
2013-08-30 09:53:00,60.7,60.0,30.17,ENE,76,1.0,4.0,96,0.00,,,0.51,weatherlink.com 1.10,2013-08-30 16:53:00,
2013-08-30 10:08:00,61.1,60.0,30.17,ENE,76,0.0,2.0,96,0.00,,,0.51,weatherlink.com 1.10,2013-08-30 17:08:00,
2013-08-30 10:23:00,61.7,61.0,30.17,ENE,76,1.0,2.0,96,0.00,,,0.51,weatherlink.com 1.10,2013-08-30 17:23:00,
2013-08-30 10:38:00,62.0,61.0,30.18,ENE,75,0.0,3.0,95,0.00,,,0.51,weatherlink.com 1.10,2013-08-30 17:38:00,
2013-08-30 10:53:00,62.4,61.0,30.17,ENE,75,0.0,0.0,95,0.00,,,0.51,weatherlink.com 1.10,2013-08-30 17:53:00,
2013-08-30 11:08:00,63.2,62.0,30.17,ENE,76,0.0,1.0,94,0.00,,,0.51,weatherlink.com 1.10,2013-08-30 18:08:00,
2013-08-30 11:23:00,63.3,61.0,30.17,ENE,76,0.0,1.0,91,0.00,,,0.51,weatherlink.com 1.10,2013-08-30 18:23:00,
2013-08-30 11:38:00,64.0,62.0,30.17,ENE,77,0.0,1.0,94,0.00,,,0.51,weatherlink.com 1.10,2013-08-30 18:38:00,
2013-08-30 11:53:00,64.2,61.0,30.17,ENE,77,0.0,1.0,89,0.00,,,0.51,weatherlink.com 1.10,2013-08-30 18:53:00,
2013-08-30 12:08:00,64.8,63.0,30.17,ENE,77,0.0,0.0,94,0.00,,,0.51,weatherlink.com 1.10,2013-08-30 19:08:00,
2013-08-30 12:23:00,65.3,63.0,30.17,ENE,77,0.0,0.0,93,0.00,,,0.51,weatherlink.com 1.10,2013-08-30 19:23:00,
2013-08-30 12:38:00,65.6,61.0,30.17,ENE,78,0.0,1.0,86,0.00,,,0.51,weatherlink.com 1.10,2013-08-30 19:38:00,
2013-08-30 13:08:00,66.2,59.0,30.16,ENE,67,0.0,2.0,78,0.00,,,0.51,weatherlink.com 1.10,2013-08-30 20:08:00,
2013-08-30 13:23:00,66.8,63.0,30.16,ENE,67,0.0,1.0,88,0.00,,,0.51,weatherlink.com 1.10,2013-08-30 20:23:00,
2013-08-30 13:38:00,67.4,64.0,30.16,ENE,67,0.0,1.0,88,0.00,,,0.51,weatherlink.com 1.10,2013-08-30 20:38:00,
2013-08-30 13:53:00,67.1,62.0,30.15,West,273,0.0,1.0,84,0.00,,,0.51,weatherlink.com 1.10,2013-08-30 20:53:00,
2013-08-30 14:08:00,66.9,62.0,30.15,West,271,1.0,2.0,84,0.00,,,0.51,weatherlink.com 1.10,2013-08-30 21:08:00,
2013-08-30 14:23:00,67.3,63.0,30.15,West,266,0.0,3.0,87,0.00,,,0.51,weatherlink.com 1.10,2013-08-30 21:23:00,
2013-08-30 14:38:00,67.5,63.0,30.14,West,262,1.0,1.0,86,0.00,,,0.51,weatherlink.com 1.10,2013-08-30 21:38:00,
2013-08-30 14:54:00,68.3,63.0,30.14,West,262,1.0,2.0,84,0.00,,,0.51,weatherlink.com 1.10,2013-08-30 21:54:00,
2013-08-30 15:09:00,66.3,63.0,30.13,West,262,2.0,2.0,89,0.00,,,0.51,weatherlink.com 1.10,2013-08-30 22:09:00,
2013-08-30 15:24:00,64.9,62.0,30.13,West,264,0.0,1.0,90,0.00,,,0.51,weatherlink.com 1.10,2013-08-30 22:24:00,
2013-08-30 15:39:00,64.9,62.0,30.13,West,264,0.0,1.0,90,0.00,,,0.51,weatherlink.com 1.10,2013-08-30 22:39:00,
2013-08-30 15:54:00,64.7,62.0,30.13,West,263,0.0,2.0,90,0.00,,,0.51,weatherlink.com 1.10,2013-08-30 22:54:00,
2013-08-30 16:09:00,64.7,62.0,30.13,West,263,0.0,2.0,89,0.00,,,0.51,weatherlink.com 1.10,2013-08-30 23:09:00,
2013-08-30 16:24:00,64.9,63.0,30.13,West,263,0.0,0.0,92,0.00,,,0.51,weatherlink.com 1.10,2013-08-30 23:24:00,
2013-08-30 16:39:00,65.1,63.0,30.13,West,263,0.0,0.0,92,0.00,,,0.51,weatherlink.com 1.10,2013-08-30 23:39:00,
2013-08-30 16:54:00,65.1,63.0,30.13,West,263,0.0,1.0,93,0.00,,,0.51,weatherlink.com 1.10,2013-08-30 23:54:00,
2013-08-30 17:09:00,65.5,63.0,30.13,West,263,0.0,0.0,91,0.00,,,0.51,weatherlink.com 1.10,2013-08-31 00:09:00,
2013-08-30 17:24:00,65.2,63.0,30.12,West,263,0.0,1.0,92,0.00,,,0.51,weatherlink.com 1.10,2013-08-31 00:24:00,
2013-08-30 17:39:00,65.3,62.0,30.12,West,263,0.0,1.0,90,0.00,,,0.51,weatherlink.com 1.10,2013-08-31 00:39:00,
2013-08-30 17:54:00,64.4,62.0,30.11,West,263,0.0,1.0,91,0.00,,,0.51,weatherlink.com 1.10,2013-08-31 00:54:00,
2013-08-30 18:09:00,63.0,60.0,30.11,West,263,0.0,1.0,91,0.00,,,0.51,weatherlink.com 1.10,2013-08-31 01:09:00,
2013-08-30 18:24:00,62.1,60.0,30.11,West,263,0.0,1.0,91,0.00,,,0.51,weatherlink.com 1.10,2013-08-31 01:24:00,
2013-08-30 18:39:00,61.4,59.0,30.11,West,263,0.0,0.0,91,0.00,,,0.51,weatherlink.com 1.10,2013-08-31 01:39:00,
2013-08-30 18:54:00,60.8,59.0,30.10,West,263,0.0,0.0,92,0.00,,,0.51,weatherlink.com 1.10,2013-08-31 01:54:00,
2013-08-30 19:09:00,60.3,59.0,30.10,West,263,0.0,0.0,94,0.00,,,0.51,weatherlink.com 1.10,2013-08-31 02:09:00,
2013-08-30 19:24:00,59.9,58.0,30.10,West,263,0.0,0.0,94,0.00,,,0.51,weatherlink.com 1.10,2013-08-31 02:24:00,
2013-08-30 19:39:00,59.5,58.0,30.11,West,263,0.0,0.0,95,0.00,,,0.51,weatherlink.com 1.10,2013-08-31 02:39:00,
2013-08-30 19:54:00,59.1,58.0,30.11,West,263,0.0,0.0,95,0.00,,,0.51,weatherlink.com 1.10,2013-08-31 02:54:00,
2013-08-30 20:09:00,58.6,57.0,30.11,West,263,0.0,0.0,95,0.00,,,0.51,weatherlink.com 1.10,2013-08-31 03:09:00,
2013-08-30 20:24:00,58.1,57.0,30.11,West,263,0.0,0.0,96,0.00,,,0.51,weatherlink.com 1.10,2013-08-31 03:24:00,
2013-08-30 20:39:00,57.8,57.0,30.12,West,263,0.0,0.0,96,0.00,,,0.51,weatherlink.com 1.10,2013-08-31 03:39:00,
2013-08-30 20:54:00,57.5,57.0,30.13,West,263,0.0,0.0,97,0.00,,,0.51,weatherlink.com 1.10,2013-08-31 03:54:00,
2013-08-30 21:09:00,57.4,57.0,30.13,West,263,0.0,0.0,97,0.00,,,0.51,weatherlink.com 1.10,2013-08-31 04:09:00,
2013-08-30 21:24:00,57.5,57.0,30.13,West,263,0.0,0.0,97,0.00,,,0.51,weatherlink.com 1.10,2013-08-31 04:24:00,
2013-08-30 21:39:00,57.4,57.0,30.13,West,263,0.0,0.0,97,0.00,,,0.51,weatherlink.com 1.10,2013-08-31 04:39:00,
2013-08-30 21:54:00,57.2,56.0,30.12,West,263,0.0,0.0,97,0.00,,,0.51,weatherlink.com 1.10,2013-08-31 04:54:00,
2013-08-30 22:09:00,57.1,56.0,30.12,West,263,0.0,1.0,97,0.00,,,0.51,weatherlink.com 1.10,2013-08-31 05:09:00,
2013-08-30 22:24:00,57.3,57.0,30.12,SE,136,0.0,1.0,98,0.00,,,0.51,weatherlink.com 1.10,2013-08-31 05:24:00,
2013-08-30 22:39:00,57.0,56.0,30.12,SE,136,0.0,0.0,97,0.00,,,0.51,weatherlink.com 1.10,2013-08-31 05:39:00,
2013-08-30 22:54:00,56.9,56.0,30.12,South,171,0.0,0.0,97,0.00,,,0.51,weatherlink.com 1.10,2013-08-31 05:54:00,
2013-08-30 23:09:00,56.9,56.0,30.11,South,171,0.0,1.0,97,0.00,,,0.51,weatherlink.com 1.10,2013-08-31 06:09:00,
2013-08-30 23:24:00,57.0,56.0,30.11,ESE,105,0.0,3.0,97,0.00,,,0.51,weatherlink.com 1.10,2013-08-31 06:24:00,
2013-08-30 23:39:00,57.2,56.0,30.12,ESE,115,0.0,3.0,96,0.00,,,0.51,weatherlink.com 1.10,2013-08-31 06:39:00,
2013-08-30 23:54:00,57.3,56.0,30.11,ESE,123,1.0,4.0,96,0.00,,,0.51,weatherlink.com 1.10,2013-08-31 06:54:00,